Time;durP1;ratioP1;P1;durP2;ratioP2;P2;SDS_P1;SDS_P2;PMS_P1;PMS_P2;Temp;Humidity;BMP_temperature;BMP_pressure;BME280_temperature;BME280_humidity;BME280_pressure;Samples;Min_cycle;Max_cycle;Signal;HPM_P1;HPM_P2
2022/01/02 00:02:11;;;;;;;5.32;2.60;;;13.00;99.90;;;;;;5020199;28;20207;-75
2022/01/02 00:04:47;;;;;;;4.55;2.63;;;13.00;99.90;;;;;;5014012;28;20196;-75
2022/01/02 00:07:16;;;;;;;3.30;2.65;;;13.00;99.90;;;;;;5036330;28;20215;-75
2022/01/02 00:09:46;;;;;;;3.42;2.85;;;13.00;99.90;;;;;;5019477;28;20195;-75
2022/01/02 00:12:16;;;;;;;3.08;2.50;;;13.00;99.90;;;;;;5033582;28;20221;-75
2022/01/02 00:14:47;;;;;;;2.50;2.30;;;13.00;99.90;;;;;;5009153;28;20199;-76
2022/01/02 00:17:17;;;;;;;2.60;2.10;;;13.00;99.90;;;;;;5009619;28;20231;-75
2022/01/02 00:19:53;;;;;;;2.70;2.03;;;13.00;99.90;;;;;;5022058;28;20672;-75
2022/01/02 00:22:27;;;;;;;2.83;2.17;;;13.00;99.90;;;;;;5006577;28;20580;-76
2022/01/02 00:24:55;;;;;;;2.60;2.40;;;13.10;99.90;;;;;;5018458;28;20235;-75
2022/01/02 00:27:23;;;;;;;3.15;2.25;;;13.10;99.90;;;;;;5012228;28;20231;-75
2022/01/02 00:29:53;;;;;;;4.03;2.22;;;13.10;99.90;;;;;;5011922;28;20678;-76
2022/01/02 00:32:22;;;;;;;2.80;2.42;;;13.10;99.90;;;;;;5012216;28;20226;-75
2022/01/02 00:34:52;;;;;;;2.45;2.20;;;13.10;99.90;;;;;;5028478;28;20239;-75
2022/01/02 00:37:33;;;;;;;4.07;2.60;;;13.10;99.90;;;;;;5034475;28;20230;-75
2022/01/02 00:40:00;;;;;;;3.00;2.47;;;13.10;99.90;;;;;;5028257;28;20219;-75
2022/01/02 00:42:31;;;;;;;2.50;2.30;;;13.20;99.90;;;;;;4999148;28;20201;-76
2022/01/02 00:45:05;;;;;;;3.65;2.55;;;13.10;99.90;;;;;;5017281;28;20557;-75
2022/01/02 00:47:57;;;;;;;2.78;2.00;;;13.10;99.90;;;;;;5014384;28;20224;-75
2022/01/02 00:50:30;;;;;;;5.35;3.45;;;13.10;99.90;;;;;;5020734;28;20215;-75
2022/01/02 00:52:59;;;;;;;2.55;2.35;;;13.10;99.90;;;;;;5003956;28;20223;-75
2022/01/02 00:55:27;;;;;;;3.25;2.58;;;13.10;99.90;;;;;;5032126;28;20230;-76
2022/01/02 00:57:57;;;;;;;4.45;2.70;;;13.10;99.90;;;;;;5015018;28;20210;-75
2022/01/02 01:00:31;;;;;;;4.22;2.47;;;13.10;99.90;;;;;;5024941;28;20198;-75
2022/01/02 01:03:01;;;;;;;2.97;2.47;;;13.10;99.90;;;;;;5014269;28;20199;-74
2022/01/02 01:05:29;;;;;;;3.67;2.55;;;13.10;99.90;;;;;;5032513;28;20200;-75
2022/01/02 01:07:58;;;;;;;2.83;2.60;;;13.10;99.90;;;;;;5018179;28;20222;-75
2022/01/02 01:10:28;;;;;;;3.38;2.53;;;13.20;99.90;;;;;;5006994;28;20607;-75
2022/01/02 01:12:59;;;;;;;3.03;2.60;;;13.20;99.90;;;;;;5011493;28;20210;-76
2022/01/02 01:15:28;;;;;;;3.30;2.13;;;13.20;99.90;;;;;;5017349;28;20199;-76
2022/01/02 01:17:59;;;;;;;3.53;2.80;;;13.20;99.90;;;;;;5008826;28;20215;-75
2022/01/02 01:20:27;;;;;;;6.07;2.50;;;13.20;99.90;;;;;;5030014;28;20199;-75
2022/01/02 01:22:55;;;;;;;2.97;2.67;;;13.20;99.90;;;;;;5007193;28;20206;-76
2022/01/02 01:25:24;;;;;;;3.88;2.53;;;13.30;99.90;;;;;;5026825;28;20565;-76
2022/01/02 01:27:53;;;;;;;3.13;2.55;;;13.30;99.90;;;;;;5011795;28;20227;-76
2022/01/02 01:30:22;;;;;;;3.78;2.42;;;13.30;99.90;;;;;;5008775;28;20200;-75
2022/01/02 01:32:52;;;;;;;3.17;2.80;;;13.30;99.90;;;;;;5021762;28;20211;-75
2022/01/02 01:35:22;;;;;;;3.90;2.50;;;13.30;99.90;;;;;;5026070;28;20218;-76
2022/01/02 01:37:49;;;;;;;5.50;2.20;;;13.40;99.90;;;;;;5020613;28;20681;-75
2022/01/02 01:40:20;;;;;;;3.58;2.45;;;13.40;99.90;;;;;;5023599;28;20199;-75
2022/01/02 01:42:57;;;;;;;3.95;2.83;;;13.40;99.90;;;;;;5018184;28;20192;-75
2022/01/02 01:45:29;;;;;;;6.70;2.95;;;13.30;99.90;;;;;;5015969;28;20196;-75
2022/01/02 01:47:59;;;;;;;4.32;2.63;;;13.40;99.90;;;;;;5020011;28;20222;-75
2022/01/02 01:50:29;;;;;;;4.25;2.70;;;13.40;99.90;;;;;;5010365;28;20666;-75
2022/01/02 01:52:57;;;;;;;2.78;2.30;;;13.50;99.90;;;;;;5023318;28;20199;-75
2022/01/02 01:55:26;;;;;;;3.90;2.22;;;13.40;99.90;;;;;;5012445;28;20199;-75
2022/01/02 01:57:54;;;;;;;3.13;2.78;;;13.40;99.90;;;;;;5010513;28;20215;-75
2022/01/02 02:00:56;;;;;;;4.18;2.45;;;13.40;99.90;;;;;;5017613;28;20211;-75
2022/01/02 02:03:34;;;;;;;4.75;2.90;;;13.60;99.90;;;;;;5021530;28;20199;-76
2022/01/02 02:06:05;;;;;;;3.58;2.40;;;13.40;99.90;;;;;;5016881;28;20231;-75
2022/01/02 02:08:32;;;;;;;4.13;2.58;;;13.50;99.90;;;;;;5008408;28;20205;-76
2022/01/02 02:11:00;;;;;;;5.88;3.10;;;13.40;99.90;;;;;;5015261;28;20215;-75
2022/01/02 02:13:30;;;;;;;5.07;2.60;;;13.40;99.90;;;;;;5027401;28;20666;-75
2022/01/02 02:16:02;;;;;;;3.90;2.40;;;13.40;99.90;;;;;;5009074;28;20204;-75
2022/01/02 02:18:30;;;;;;;5.30;2.60;;;13.50;99.90;;;;;;5017379;28;20215;-75
2022/01/02 02:21:00;;;;;;;3.10;2.45;;;13.50;99.90;;;;;;5027493;28;20654;-76
2022/01/02 02:23:45;;;;;;;3.78;2.60;;;13.50;99.90;;;;;;5024582;28;20207;-76
2022/01/02 02:26:13;;;;;;;7.18;2.70;;;13.50;99.90;;;;;;5011844;28;20538;-75
2022/01/02 02:28:40;;;;;;;4.45;2.53;;;13.50;99.90;;;;;;5022878;28;20215;-74
2022/01/02 02:31:07;;;;;;;4.72;2.50;;;13.50;99.90;;;;;;5015340;28;20208;-75
2022/01/02 02:33:35;;;;;;;5.47;2.67;;;13.60;99.90;;;;;;5024504;28;20196;-76
2022/01/02 02:36:04;;;;;;;4.68;2.70;;;13.50;99.90;;;;;;5027826;28;20208;-75
2022/01/02 02:38:32;;;;;;;4.68;2.50;;;13.60;99.90;;;;;;5019338;28;20235;-75
2022/01/02 02:41:02;;;;;;;6.15;2.97;;;13.50;99.90;;;;;;5020843;28;20196;-75
2022/01/02 02:43:34;;;;;;;3.53;2.47;;;13.60;99.90;;;;;;5029318;28;20211;-76
2022/01/02 02:49:01;;;;;;;7.28;3.42;;;13.50;99.90;;;;;;5018620;28;20195;-76
2022/01/02 02:51:48;;;;;;;4.53;2.72;;;13.60;99.90;;;;;;5032876;28;20204;-75
2022/01/02 02:54:24;;;;;;;4.97;2.65;;;13.50;99.90;;;;;;5029506;28;20200;-75
2022/01/02 02:56:56;;;;;;;5.68;2.92;;;13.60;99.90;;;;;;5029894;28;20226;-75
2022/01/02 02:59:28;;;;;;;6.00;2.50;;;13.60;99.90;;;;;;5013127;28;20199;-76
2022/01/02 03:01:56;;;;;;;5.25;2.88;;;13.60;99.90;;;;;;5019391;28;20210;-75
2022/01/02 03:04:24;;;;;;;5.15;2.58;;;13.60;99.90;;;;;;5033521;28;20200;-75
2022/01/02 03:06:54;;;;;;;6.00;2.90;;;13.50;99.90;;;;;;5029527;28;20220;-75
2022/01/02 03:09:37;;;;;;;4.72;2.58;;;13.60;99.90;;;;;;5027318;28;20561;-75
2022/01/02 03:12:05;;;;;;;4.88;2.78;;;13.60;99.90;;;;;;5009595;28;20234;-75
2022/01/02 03:14:47;;;;;;;5.07;2.50;;;13.50;99.90;;;;;;5033628;28;20951;-75
2022/01/02 03:17:15;;;;;;;6.90;3.03;;;13.50;99.90;;;;;;5013921;28;20592;-75
2022/01/02 03:19:43;;;;;;;4.35;2.65;;;13.60;99.90;;;;;;5015493;28;20199;-75
2022/01/02 03:22:14;;;;;;;8.65;2.90;;;13.50;99.90;;;;;;5011138;28;20195;-75
2022/01/02 03:24:41;;;;;;;4.40;2.75;;;13.50;99.90;;;;;;5010099;28;20266;-75
2022/01/02 03:27:29;;;;;;;6.10;2.80;;;13.50;99.90;;;;;;5027612;28;20243;-74
2022/01/02 03:29:57;;;;;;;6.35;3.15;;;13.50;99.90;;;;;;5030886;28;20187;-75
2022/01/02 03:32:27;;;;;;;5.03;3.05;;;13.50;99.90;;;;;;5020600;28;20207;-75
2022/01/02 03:34:55;;;;;;;6.38;2.97;;;13.40;99.90;;;;;;5014829;28;20203;-75
2022/01/02 03:37:28;;;;;;;7.03;3.03;;;13.40;99.90;;;;;;5013550;28;20220;-75
2022/01/02 03:39:55;;;;;;;8.80;2.80;;;13.40;99.90;;;;;;5010833;28;20199;-75
2022/01/02 03:42:23;;;;;;;5.75;2.92;;;13.40;99.90;;;;;;5028720;28;20676;-75
2022/01/02 03:44:51;;;;;;;4.93;2.95;;;13.40;99.90;;;;;;5025941;28;20191;-75
2022/01/02 03:47:18;;;;;;;7.20;3.10;;;13.40;99.90;;;;;;5014384;28;20220;-75
2022/01/02 03:49:46;;;;;;;7.38;2.90;;;13.40;99.90;;;;;;5016382;28;20200;-75
2022/01/02 03:52:15;;;;;;;8.57;3.15;;;13.30;99.90;;;;;;5031271;28;20226;-75
2022/01/02 03:54:44;;;;;;;6.90;2.85;;;13.30;99.90;;;;;;5009662;28;20682;-75
2022/01/02 03:57:11;;;;;;;7.43;2.78;;;13.30;99.90;;;;;;5027245;28;20246;-74
2022/01/02 03:59:39;;;;;;;5.95;2.55;;;13.30;99.90;;;;;;5015378;28;20199;-75
2022/01/02 04:02:07;;;;;;;5.82;3.10;;;13.20;99.90;;;;;;5005161;28;20582;-75
2022/01/02 04:04:34;;;;;;;7.55;3.13;;;13.20;99.90;;;;;;5025251;28;20586;-75
2022/01/02 04:07:03;;;;;;;7.45;3.08;;;13.20;99.90;;;;;;5032496;28;20231;-75
2022/01/02 04:09:30;;;;;;;8.18;3.10;;;13.20;99.90;;;;;;5015143;28;20196;-74
2022/01/02 04:12:31;;;;;;;4.82;3.17;;;13.20;99.90;;;;;;5011416;28;20215;-75
2022/01/02 04:14:59;;;;;;;7.18;2.97;;;13.20;99.90;;;;;;5024588;28;20201;-75
2022/01/02 04:17:26;;;;;;;7.78;2.95;;;13.10;99.90;;;;;;5026140;28;20223;-75
2022/01/02 04:19:54;;;;;;;5.05;3.25;;;13.10;99.90;;;;;;5020524;28;20658;-75
2022/01/02 04:22:22;;;;;;;7.50;2.90;;;13.10;99.90;;;;;;5022179;28;20578;-75
2022/01/02 04:24:49;;;;;;;6.53;3.33;;;13.10;99.90;;;;;;5023774;28;20193;-75
2022/01/02 04:27:18;;;;;;;5.07;2.90;;;13.10;99.90;;;;;;5035267;28;20227;-75
2022/01/02 04:29:48;;;;;;;7.57;2.88;;;13.10;99.90;;;;;;5021896;28;20573;-75
2022/01/02 04:32:15;;;;;;;6.22;3.08;;;13.10;99.90;;;;;;5009029;28;20220;-75
2022/01/02 04:34:45;;;;;;;6.18;3.13;;;13.10;99.90;;;;;;5022042;28;20192;-75
2022/01/02 04:37:13;;;;;;;6.47;3.00;;;13.10;99.90;;;;;;5021143;28;20223;-75
2022/01/02 04:39:41;;;;;;;8.75;3.78;;;13.10;99.90;;;;;;5023000;28;20193;-75
2022/01/02 04:42:18;;;;;;;5.30;3.13;;;13.10;99.90;;;;;;5024436;28;20207;-75
2022/01/02 04:44:47;;;;;;;5.60;2.80;;;13.10;99.90;;;;;;5023637;28;20658;-75
2022/01/02 04:47:16;;;;;;;7.97;3.40;;;13.10;99.90;;;;;;5017644;28;20216;-75
2022/01/02 04:49:44;;;;;;;5.22;2.92;;;13.10;99.90;;;;;;5023291;28;20204;-75
2022/01/02 04:52:11;;;;;;;4.60;2.78;;;13.10;99.90;;;;;;5011616;28;20211;-75
2022/01/02 04:54:39;;;;;;;8.25;3.30;;;13.10;99.90;;;;;;5026737;28;20682;-75
2022/01/02 04:57:07;;;;;;;7.90;3.63;;;13.10;99.90;;;;;;5002291;28;20242;-75
2022/01/02 04:59:34;;;;;;;5.93;3.30;;;13.10;99.90;;;;;;5027700;28;20203;-75
2022/01/02 05:02:03;;;;;;;10.90;3.83;;;13.00;99.90;;;;;;5012804;28;20179;-75
2022/01/02 05:04:30;;;;;;;8.93;3.58;;;13.00;99.90;;;;;;5030855;28;20208;-75
2022/01/02 05:06:59;;;;;;;6.10;2.90;;;13.00;99.90;;;;;;5013918;28;20227;-75
2022/01/02 05:09:26;;;;;;;6.70;3.25;;;12.90;99.90;;;;;;5020172;28;20196;-75
2022/01/02 05:11:54;;;;;;;7.45;2.97;;;12.90;99.90;;;;;;5013937;28;20206;-75
2022/01/02 05:14:38;;;;;;;8.18;3.60;;;12.90;99.90;;;;;;5022216;28;20203;-75
2022/01/02 05:17:07;;;;;;;7.50;3.65;;;13.00;99.90;;;;;;5020815;28;20224;-75
2022/01/02 05:19:35;;;;;;;6.47;3.25;;;13.00;99.90;;;;;;5020020;28;20212;-75
2022/01/02 05:22:03;;;;;;;4.55;3.00;;;13.00;99.90;;;;;;5017448;28;20199;-74
2022/01/02 05:24:31;;;;;;;6.18;3.00;;;13.00;99.90;;;;;;5008839;28;20192;-75
2022/01/02 05:26:59;;;;;;;6.57;3.63;;;13.10;99.90;;;;;;5024785;28;20226;-75
2022/01/02 05:29:26;;;;;;;7.88;3.42;;;13.10;99.90;;;;;;5020465;28;20204;-74
2022/01/02 05:31:55;;;;;;;8.52;3.95;;;13.10;99.90;;;;;;5019741;28;20207;-75
2022/01/02 05:34:23;;;;;;;7.20;3.28;;;13.10;99.90;;;;;;5028702;28;20207;-75
2022/01/02 05:36:51;;;;;;;6.45;3.30;;;13.10;99.90;;;;;;5011171;28;20212;-75
2022/01/02 05:39:22;;;;;;;6.75;3.25;;;13.10;99.90;;;;;;5017737;28;20681;-75
2022/01/02 05:41:51;;;;;;;5.22;3.30;;;13.10;99.90;;;;;;5021749;28;20203;-75
2022/01/02 05:44:22;;;;;;;7.88;3.38;;;13.10;99.90;;;;;;5030728;28;20198;-75
2022/01/02 05:46:50;;;;;;;6.90;3.50;;;13.10;99.90;;;;;;5018907;28;20215;-75
2022/01/02 05:49:18;;;;;;;9.10;3.05;;;13.10;99.90;;;;;;5024499;28;20207;-75
2022/01/02 05:51:47;;;;;;;7.10;3.40;;;13.10;99.90;;;;;;5019046;28;20196;-75
2022/01/02 05:54:15;;;;;;;7.25;3.72;;;13.10;99.90;;;;;;5023580;28;20578;-75
2022/01/02 05:56:43;;;;;;;7.25;3.20;;;13.10;99.90;;;;;;5021776;28;20219;-75
2022/01/02 05:59:11;;;;;;;7.38;3.20;;;13.10;99.90;;;;;;5033340;28;20214;-75
2022/01/02 06:01:39;;;;;;;9.48;3.33;;;13.00;99.90;;;;;;5026144;28;20207;-75
2022/01/02 06:04:07;;;;;;;9.18;3.30;;;13.00;99.90;;;;;;5003809;28;20203;-75
2022/01/02 06:06:34;;;;;;;6.72;3.45;;;13.00;99.90;;;;;;5025961;28;20203;-75
2022/01/02 06:09:03;;;;;;;5.82;3.10;;;13.00;99.90;;;;;;5028547;28;20565;-74
2022/01/02 06:11:32;;;;;;;7.28;3.15;;;13.00;99.90;;;;;;5020802;28;20203;-75
2022/01/02 06:13:59;;;;;;;8.32;3.30;;;13.00;99.90;;;;;;5022714;28;20209;-75
2022/01/02 06:16:28;;;;;;;6.78;4.05;;;13.00;99.90;;;;;;5017530;28;20200;-75
2022/01/02 06:18:57;;;;;;;8.13;3.67;;;13.00;99.90;;;;;;5030706;28;20204;-75
2022/01/02 06:21:25;;;;;;;7.63;4.07;;;13.00;99.90;;;;;;5019410;28;20287;-75
2022/01/02 06:23:52;;;;;;;11.02;4.25;;;12.90;99.90;;;;;;5021166;28;20197;-75
2022/01/02 06:26:21;;;;;;;9.02;3.40;;;13.00;99.90;;;;;;5010785;28;20207;-75
2022/01/02 06:28:49;;;;;;;6.88;3.63;;;13.00;99.90;;;;;;5012898;28;20210;-75
2022/01/02 06:31:17;;;;;;;12.55;4.20;;;13.00;99.90;;;;;;5021710;28;20208;-74
2022/01/02 06:33:44;;;;;;;8.70;3.95;;;13.00;99.90;;;;;;5024346;28;20676;-74
2022/01/02 06:36:12;;;;;;;6.97;3.28;;;13.00;99.90;;;;;;5029010;28;20199;-74
2022/01/02 06:38:39;;;;;;;7.28;3.47;;;13.00;99.90;;;;;;5024471;28;20220;-74
2022/01/02 06:41:07;;;;;;;7.55;3.55;;;13.00;99.90;;;;;;5009652;28;20665;-74
2022/01/02 06:43:36;;;;;;;8.95;2.90;;;13.00;99.90;;;;;;5014653;28;20686;-74
2022/01/02 06:46:04;;;;;;;9.02;3.33;;;13.00;99.90;;;;;;5016191;28;20568;-74
2022/01/02 06:48:31;;;;;;;5.03;3.53;;;13.00;99.90;;;;;;5023336;28;20231;-75
2022/01/02 06:50:59;;;;;;;9.50;3.42;;;13.00;99.90;;;;;;5026827;28;20203;-75
2022/01/02 06:53:27;;;;;;;5.18;3.30;;;12.90;99.90;;;;;;5017070;28;20212;-74
2022/01/02 06:56:01;;;;;;;7.55;3.30;;;12.90;99.90;;;;;;5017948;28;20196;-74
2022/01/02 06:58:30;;;;;;;10.43;4.05;;;12.90;99.90;;;;;;5024379;28;20227;-74
2022/01/02 07:00:59;;;;;;;7.10;3.50;;;12.90;99.90;;;;;;5018243;28;20196;-74
2022/01/02 07:03:28;;;;;;;7.63;3.50;;;12.90;99.90;;;;;;5019607;28;20200;-74
2022/01/02 07:05:55;;;;;;;6.40;3.45;;;12.90;99.90;;;;;;5007154;28;20200;-74
2022/01/02 07:08:23;;;;;;;8.48;3.72;;;12.90;99.90;;;;;;5001538;28;20223;-74
2022/01/02 07:10:50;;;;;;;8.02;3.90;;;12.90;99.90;;;;;;5027712;28;20198;-74
2022/01/02 07:13:18;;;;;;;7.22;3.25;;;13.00;99.90;;;;;;5026654;28;20252;-75
2022/01/02 07:15:45;;;;;;;9.10;3.33;;;13.00;99.90;;;;;;5023268;28;20204;-74
2022/01/02 07:18:14;;;;;;;5.85;3.00;;;12.90;99.90;;;;;;5023043;28;20590;-74
2022/01/02 07:20:42;;;;;;;8.30;3.08;;;13.00;99.90;;;;;;5026048;28;20659;-74
2022/01/02 07:23:10;;;;;;;5.30;3.10;;;13.00;99.90;;;;;;5013169;28;20207;-74
2022/01/02 07:25:37;;;;;;;7.30;3.60;;;13.00;99.90;;;;;;5039375;28;20213;-74
2022/01/02 07:28:05;;;;;;;5.57;3.20;;;12.90;99.90;;;;;;5031511;28;20237;-74
2022/01/02 07:30:32;;;;;;;7.73;3.90;;;12.80;99.90;;;;;;5030275;28;20210;-74
2022/01/02 07:33:02;;;;;;;8.03;3.77;;;12.80;99.90;;;;;;5011530;28;20658;-78
2022/01/02 07:35:39;;;;;;;8.77;4.05;;;12.70;99.90;;;;;;5004798;28;20199;-78
2022/01/02 07:38:06;;;;;;;6.93;3.50;;;12.60;99.90;;;;;;5014112;28;20231;-77
2022/01/02 07:40:34;;;;;;;5.97;3.90;;;12.60;99.90;;;;;;5012965;28;20279;-77
2022/01/02 07:43:01;;;;;;;8.68;4.40;;;12.40;99.90;;;;;;5006468;28;20202;-77
2022/01/02 07:45:40;;;;;;;8.13;3.57;;;12.40;99.90;;;;;;5012067;28;20200;-77
2022/01/02 07:48:13;;;;;;;9.37;3.50;;;12.40;99.90;;;;;;5011642;28;20234;-77
2022/01/02 07:50:41;;;;;;;8.20;4.70;;;12.40;99.90;;;;;;5019010;28;20196;-77
2022/01/02 07:53:21;;;;;;;6.87;4.23;;;12.40;99.90;;;;;;5018552;28;20561;-77
2022/01/02 07:55:48;;;;;;;6.00;3.80;;;12.40;99.90;;;;;;5019921;28;20204;-77
2022/01/02 07:58:16;;;;;;;7.27;3.73;;;12.40;99.90;;;;;;5006250;28;20223;-77
2022/01/02 08:00:44;;;;;;;6.07;3.63;;;12.40;99.90;;;;;;5027625;28;20199;-78
2022/01/02 08:03:11;;;;;;;7.15;4.28;;;12.40;99.90;;;;;;5010193;28;20203;-75
2022/01/02 08:05:39;;;;;;;7.60;3.80;;;12.40;99.90;;;;;;5018766;28;20665;-77
2022/01/02 08:08:07;;;;;;;8.33;3.80;;;12.40;99.90;;;;;;5024361;28;20231;-77
2022/01/02 08:10:35;;;;;;;12.83;4.27;;;12.40;99.90;;;;;;5032402;28;20212;-77
2022/01/02 08:13:15;;;;;;;7.30;3.90;;;12.40;99.90;;;;;;5008522;28;20211;-78
2022/01/02 08:15:43;;;;;;;5.63;3.87;;;12.40;99.90;;;;;;5031002;28;20203;-78
2022/01/02 08:18:14;;;;;;;7.70;3.50;;;12.40;99.90;;;;;;5024644;28;20227;-78
2022/01/02 08:20:41;;;;;;;8.17;3.87;;;12.40;99.90;;;;;;5023656;28;20200;-77
2022/01/02 08:23:19;;;;;;;5.33;4.17;;;12.40;99.90;;;;;;5021794;28;20223;-77
2022/01/02 08:25:47;;;;;;;3.57;3.10;;;12.50;99.90;;;;;;5022660;28;20196;-78
2022/01/02 08:28:15;;;;;;;6.07;3.63;;;12.50;99.90;;;;;;5025756;28;20235;-78
2022/01/02 08:30:43;;;;;;;6.57;3.23;;;12.60;99.90;;;;;;5018838;28;20666;-78
2022/01/02 08:33:18;;;;;;;6.57;3.37;;;12.60;99.90;;;;;;5006146;28;20224;-77
2022/01/02 08:35:48;;;;;;;8.30;3.50;;;12.60;99.90;;;;;;5024534;28;20223;-77
2022/01/02 08:38:16;;;;;;;9.75;3.80;;;12.60;99.90;;;;;;5017747;28;20295;-77
2022/01/02 08:40:45;;;;;;;5.03;3.37;;;12.70;99.90;;;;;;5004357;28;20211;-78
2022/01/02 08:43:21;;;;;;;7.00;3.60;;;12.70;99.90;;;;;;5012008;28;20195;-78
2022/01/02 08:45:48;;;;;;;5.97;3.03;;;12.70;99.90;;;;;;5021248;28;20199;-77
2022/01/02 08:48:16;;;;;;;4.47;2.78;;;12.70;99.90;;;;;;5010272;28;20216;-77
2022/01/02 08:50:43;;;;;;;8.20;3.38;;;12.70;99.90;;;;;;5039231;28;20195;-77
2022/01/02 08:53:38;;;;;;;4.40;2.80;;;12.60;99.90;;;;;;5014650;28;20211;-77
2022/01/02 08:56:06;;;;;;;5.00;3.17;;;12.60;99.90;;;;;;5008545;28;20215;-77
2022/01/02 08:58:34;;;;;;;3.67;3.00;;;12.70;99.90;;;;;;5026934;28;20235;-77
2022/01/02 09:01:01;;;;;;;4.10;2.70;;;12.70;99.90;;;;;;5011927;28;20534;-77
2022/01/02 09:03:29;;;;;;;3.93;2.67;;;12.90;99.90;;;;;;5010185;28;20565;-77
2022/01/02 09:05:56;;;;;;;3.10;2.20;;;13.20;99.90;;;;;;5014459;28;20188;-77
2022/01/02 09:08:24;;;;;;;3.92;2.42;;;13.30;99.90;;;;;;5009554;28;20230;-76
2022/01/02 09:11:03;;;;;;;4.95;2.80;;;13.60;99.90;;;;;;5007225;28;20196;-77
2022/01/02 09:13:36;;;;;;;3.50;2.17;;;13.90;99.90;;;;;;5003861;28;20198;-77
2022/01/02 09:16:11;;;;;;;4.20;1.90;;;14.00;99.90;;;;;;5026769;28;20234;-77
2022/01/02 09:18:38;;;;;;;3.10;2.17;;;13.90;99.90;;;;;;5011705;28;20264;-77
2022/01/02 09:21:07;;;;;;;5.78;2.60;;;13.80;99.90;;;;;;5011495;28;20199;-77
2022/01/02 09:23:34;;;;;;;4.47;2.42;;;13.80;99.90;;;;;;5011808;28;20202;-77
2022/01/02 09:26:12;;;;;;;4.20;2.30;;;13.80;99.90;;;;;;5016902;28;20556;-76
2022/01/02 09:28:42;;;;;;;4.95;2.38;;;13.70;99.90;;;;;;5011238;28;20215;-77
2022/01/02 09:31:09;;;;;;;3.65;2.53;;;13.60;99.90;;;;;;5010069;28;20207;-77
2022/01/02 09:33:36;;;;;;;4.50;2.60;;;13.40;99.90;;;;;;5010028;28;20203;-77
2022/01/02 09:36:09;;;;;;;4.60;3.00;;;13.30;99.90;;;;;;5014699;28;20242;-77
2022/01/02 09:38:36;;;;;;;4.22;2.33;;;13.30;99.90;;;;;;5026512;28;20222;-77
2022/01/02 09:41:05;;;;;;;4.35;2.97;;;13.20;99.90;;;;;;5026471;28;20214;-77
2022/01/02 09:43:44;;;;;;;3.78;2.80;;;13.20;99.90;;;;;;5011629;28;20187;-77
2022/01/02 09:46:12;;;;;;;5.28;2.75;;;13.20;99.90;;;;;;5026846;28;20191;-77
2022/01/02 09:48:39;;;;;;;4.47;2.53;;;13.20;99.90;;;;;;5009626;28;20227;-77
2022/01/02 09:51:12;;;;;;;3.22;2.70;;;13.30;99.90;;;;;;5004115;28;20685;-77
2022/01/02 09:53:39;;;;;;;2.88;2.42;;;13.40;99.90;;;;;;5035960;28;20770;-76
2022/01/02 09:56:06;;;;;;;3.60;2.45;;;13.50;99.90;;;;;;5008796;28;20212;-76
2022/01/02 09:58:38;;;;;;;4.80;2.42;;;13.50;99.90;;;;;;5013322;28;20235;-76
2022/01/02 10:01:06;;;;;;;3.33;2.20;;;13.60;99.90;;;;;;5001115;28;20207;-76
2022/01/02 10:03:43;;;;;;;4.43;2.65;;;13.60;99.90;;;;;;5010767;28;20196;-76
2022/01/02 10:06:10;;;;;;;2.47;2.10;;;13.60;99.90;;;;;;5007362;28;20192;-76
2022/01/02 10:08:38;;;;;;;4.10;2.38;;;13.60;99.90;;;;;;4997830;28;20222;-75
2022/01/02 10:11:12;;;;;;;3.38;2.55;;;13.60;99.90;;;;;;5020899;28;20208;-76
2022/01/02 10:14:01;;;;;;;3.22;2.78;;;13.60;99.90;;;;;;5006611;28;20197;-75
2022/01/02 10:16:36;;;;;;;2.97;2.63;;;13.60;99.90;;;;;;5005030;28;20235;-76
2022/01/02 10:19:19;;;;;;;5.85;2.90;;;13.50;99.90;;;;;;5010416;28;20198;-75
2022/01/02 10:21:59;;;;;;;7.15;3.15;;;13.60;99.90;;;;;;5019278;28;20200;-76
2022/01/02 10:24:28;;;;;;;3.60;2.58;;;13.50;99.90;;;;;;5012096;28;20219;-76
2022/01/02 10:27:15;;;;;;;3.15;2.60;;;13.50;99.90;;;;;;5025913;28;20220;-76
2022/01/02 10:29:54;;;;;;;3.78;2.90;;;13.50;99.90;;;;;;5028663;28;20576;-76
2022/01/02 10:32:43;;;;;;;4.97;3.05;;;13.50;99.90;;;;;;5023721;28;20203;-76
2022/01/02 10:35:16;;;;;;;4.90;2.80;;;13.60;99.90;;;;;;5027730;28;20307;-76
2022/01/02 10:38:15;;;;;;;4.07;2.47;;;13.50;99.90;;;;;;5000077;28;20219;-76
2022/01/02 10:40:43;;;;;;;3.83;2.83;;;13.50;99.90;;;;;;5028513;28;20207;-76
2022/01/02 10:43:22;;;;;;;4.35;3.03;;;13.50;99.90;;;;;;5016623;28;20573;-76
2022/01/02 10:45:50;;;;;;;4.40;2.90;;;13.40;99.90;;;;;;5023427;28;20204;-76
2022/01/02 10:48:31;;;;;;;5.30;3.45;;;13.40;99.90;;;;;;5014412;28;20223;-76
2022/01/02 10:51:10;;;;;;;5.25;3.22;;;13.40;99.90;;;;;;5003663;28;20198;-76
2022/01/02 10:53:51;;;;;;;3.40;2.95;;;13.40;99.90;;;;;;5007224;28;20203;-76
2022/01/02 10:56:20;;;;;;;4.10;3.08;;;13.40;99.90;;;;;;5008922;28;20231;-77
2022/01/02 10:58:48;;;;;;;5.78;3.40;;;13.30;99.90;;;;;;5027611;28;20230;-76
2022/01/02 11:01:16;;;;;;;4.80;3.17;;;13.40;99.90;;;;;;5003499;28;20212;-76
2022/01/02 11:03:45;;;;;;;4.05;3.08;;;13.40;99.90;;;;;;5013045;28;20207;-76
2022/01/02 11:06:23;;;;;;;3.72;3.42;;;13.40;99.90;;;;;;5027868;28;20207;-76
2022/01/02 11:08:52;;;;;;;3.58;3.00;;;13.40;99.90;;;;;;5021653;28;20191;-76
2022/01/02 11:11:21;;;;;;;6.05;4.20;;;13.40;99.90;;;;;;5010686;28;20577;-76
2022/01/02 11:13:50;;;;;;;6.40;4.05;;;13.40;99.90;;;;;;5022079;28;20199;-76
2022/01/02 11:16:19;;;;;;;5.65;3.47;;;13.40;99.90;;;;;;5023516;28;20219;-76
2022/01/02 11:18:48;;;;;;;4.82;3.50;;;13.40;99.90;;;;;;5015006;28;20207;-76
2022/01/02 11:21:16;;;;;;;4.72;3.47;;;13.50;99.90;;;;;;5012716;28;20219;-76
2022/01/02 11:23:50;;;;;;;7.28;4.18;;;13.50;99.90;;;;;;5017694;28;20199;-76
2022/01/02 11:26:23;;;;;;;4.93;3.58;;;13.50;99.90;;;;;;5009429;28;20218;-76
2022/01/02 11:28:51;;;;;;;5.03;3.72;;;13.60;99.90;;;;;;5011618;28;20203;-75
2022/01/02 11:31:29;;;;;;;8.32;3.78;;;13.70;99.90;;;;;;5009992;28;20566;-76
2022/01/02 11:33:59;;;;;;;7.03;4.07;;;13.70;99.90;;;;;;5015947;28;20199;-75
2022/01/02 11:36:28;;;;;;;9.23;4.20;;;13.90;99.90;;;;;;5009014;28;20230;-76
2022/01/02 11:39:02;;;;;;;5.85;3.55;;;13.90;99.90;;;;;;5023157;28;20211;-76
2022/01/02 11:41:41;;;;;;;9.15;4.68;;;14.10;99.90;;;;;;5003134;28;20200;-76
2022/01/02 11:44:10;;;;;;;5.75;4.10;;;14.40;99.90;;;;;;5007554;28;20203;-75
2022/01/02 11:46:49;;;;;;;6.60;4.43;;;14.50;99.90;;;;;;5021307;28;20196;-75
2022/01/02 11:49:40;;;;;;;5.65;4.03;;;14.40;99.90;;;;;;5020407;28;20262;-75
2022/01/02 11:52:22;;;;;;;9.40;4.47;;;14.30;99.90;;;;;;5025065;28;20208;-74
2022/01/02 11:54:52;;;;;;;7.03;4.80;;;14.20;99.90;;;;;;5025531;28;20192;-75
2022/01/02 11:57:43;;;;;;;6.68;4.60;;;14.10;99.90;;;;;;5034252;28;20233;-74
2022/01/02 12:00:17;;;;;;;5.70;4.18;;;14.00;99.90;;;;;;5006600;28;20208;-74
2022/01/02 12:02:47;;;;;;;4.65;4.15;;;14.00;99.90;;;;;;5007696;28;20200;-75
2022/01/02 12:05:16;;;;;;;7.75;5.18;;;14.20;99.90;;;;;;5001907;28;20208;-75
2022/01/02 12:07:54;;;;;;;6.80;4.90;;;14.10;99.90;;;;;;5016105;28;20246;-75
2022/01/02 12:10:26;;;;;;;6.00;4.47;;;13.90;99.90;;;;;;5013060;28;20203;-75
2022/01/02 12:13:20;;;;;;;8.63;5.03;;;13.80;99.90;;;;;;5004101;28;20191;-75
2022/01/02 12:16:17;;;;;;;6.68;4.57;;;13.80;99.90;;;;;;5023087;28;20542;-75
2022/01/02 12:18:58;;;;;;;8.30;4.35;;;13.80;99.90;;;;;;5025331;28;20595;-75
2022/01/02 12:21:26;;;;;;;5.65;3.78;;;13.70;99.90;;;;;;5009917;28;20203;-75
2022/01/02 12:23:56;;;;;;;6.65;4.03;;;13.70;99.90;;;;;;5022175;28;20199;-75
2022/01/02 12:26:35;;;;;;;7.22;4.15;;;13.70;99.90;;;;;;5002554;28;20198;-76
2022/01/02 12:29:06;;;;;;;7.57;4.00;;;13.70;99.90;;;;;;5023490;28;20207;-75
2022/01/02 12:31:44;;;;;;;4.45;3.35;;;13.70;99.90;;;;;;5018214;28;20200;-74
2022/01/02 12:34:14;;;;;;;3.97;3.20;;;13.70;99.90;;;;;;5011141;28;20191;-76
2022/01/02 12:36:45;;;;;;;5.65;3.88;;;13.70;99.90;;;;;;4996333;28;20231;-75
2022/01/02 12:39:26;;;;;;;5.45;3.70;;;13.70;99.90;;;;;;5020131;28;20649;-75
2022/01/02 12:42:11;;;;;;;5.80;3.42;;;13.60;99.90;;;;;;5027889;28;20211;-75
2022/01/02 12:44:45;;;;;;;6.47;3.60;;;13.60;99.90;;;;;;5028229;28;20207;-75
2022/01/02 12:47:17;;;;;;;8.43;3.53;;;13.60;99.90;;;;;;5008086;28;20570;-76
2022/01/02 12:49:47;;;;;;;4.68;3.25;;;13.50;99.90;;;;;;5010366;28;20207;-76
2022/01/02 12:52:18;;;;;;;7.65;3.90;;;13.60;99.90;;;;;;5007402;28;20211;-76
2022/01/02 12:54:47;;;;;;;4.50;3.17;;;13.60;99.90;;;;;;5006064;28;20746;-75
2022/01/02 12:57:16;;;;;;;5.88;3.55;;;13.50;99.90;;;;;;5005665;28;20238;-75
2022/01/02 12:59:45;;;;;;;4.75;3.40;;;13.50;99.90;;;;;;5004591;28;20681;-75
2022/01/02 13:02:13;;;;;;;5.15;3.40;;;13.60;99.90;;;;;;4999856;28;20212;-75
2022/01/02 13:04:42;;;;;;;5.38;3.50;;;13.60;99.90;;;;;;5012989;28;20209;-76
2022/01/02 13:07:12;;;;;;;5.80;3.17;;;13.50;99.90;;;;;;5010999;28;20224;-75
2022/01/02 13:09:43;;;;;;;8.13;3.40;;;13.50;99.90;;;;;;4995964;28;20204;-75